createdAt,value
2022-12-23T00:01:50.432Z,1.85
2022-12-23T00:04:17.294Z,0.80
2022-12-23T00:06:43.956Z,1.48
2022-12-23T00:09:10.494Z,1.70
2022-12-23T00:11:37.164Z,3.63
2022-12-23T00:14:22.514Z,2.92
2022-12-23T00:16:50.515Z,3.38
2022-12-23T00:19:17.428Z,1.58
2022-12-23T00:21:44.107Z,1.40
2022-12-23T00:24:11.819Z,1.58
2022-12-23T00:26:38.598Z,1.58
2022-12-23T00:29:05.185Z,1.45
2022-12-23T00:31:31.806Z,0.93
2022-12-23T00:33:58.428Z,0.90
2022-12-23T00:36:29.888Z,0.50
2022-12-23T00:39:17.496Z,0.70
2022-12-23T00:42:03.327Z,1.33
2022-12-23T00:44:29.986Z,2.45
2022-12-23T00:46:56.539Z,0.90
2022-12-23T00:49:41.871Z,1.20
2022-12-23T00:52:13.712Z,1.05
2022-12-23T00:54:41.054Z,0.70
2022-12-23T00:57:07.883Z,0.60
2022-12-23T00:59:34.485Z,1.00
2022-12-23T01:02:19.752Z,0.70
2022-12-23T01:05:04.675Z,1.58
2022-12-23T01:07:31.261Z,4.55
2022-12-23T01:09:57.840Z,1.23
2022-12-23T01:12:24.376Z,1.73
2022-12-23T01:14:50.962Z,3.53
2022-12-23T01:17:18.395Z,4.55
2022-12-23T01:19:45.066Z,2.03
2022-12-23T01:22:11.713Z,3.55
2022-12-23T01:24:38.268Z,2.55
2022-12-23T01:27:04.796Z,3.38
2022-12-23T01:29:31.439Z,2.88
2022-12-23T01:31:58.088Z,3.97
2022-12-23T01:34:24.822Z,0.95
2022-12-23T01:36:51.449Z,1.90
2022-12-23T01:39:18.185Z,2.28
2022-12-23T01:42:03.130Z,1.33
2022-12-23T01:44:54.331Z,2.17
2022-12-23T01:47:50.906Z,2.25
2022-12-23T01:50:49.352Z,2.58
2022-12-23T01:53:18.961Z,1.38
2022-12-23T01:55:56.441Z,1.50
2022-12-23T01:58:30.483Z,2.03
2022-12-23T02:01:16.513Z,2.10
2022-12-23T02:03:44.710Z,2.92
2022-12-23T02:06:37.162Z,7.28
2022-12-23T02:09:17.419Z,2.30
2022-12-23T02:11:53.757Z,1.60
2022-12-23T02:15:04.079Z,3.53
2022-12-23T02:17:48.762Z,2.00
2022-12-23T02:20:48.934Z,2.55
2022-12-23T02:24:02.514Z,2.22
2022-12-23T02:26:50.148Z,3.47
2022-12-23T02:29:35.593Z,2.42
2022-12-23T02:32:07.920Z,1.50
2022-12-23T02:34:49.379Z,1.83
2022-12-23T02:37:31.014Z,1.50
2022-12-23T02:40:16.278Z,1.98
2022-12-23T02:43:07.430Z,2.75
2022-12-23T02:45:47.224Z,3.33
2022-12-23T02:48:44.476Z,1.75
2022-12-23T02:51:14.054Z,1.52
2022-12-23T02:53:47.800Z,2.13
2022-12-23T02:56:17.120Z,1.88
2022-12-23T02:58:55.993Z,2.10
2022-12-23T03:01:26.286Z,2.55
2022-12-23T03:03:53.132Z,2.08
2022-12-23T03:06:25.703Z,2.15
2022-12-23T03:08:55.365Z,2.20
2022-12-23T03:11:24.531Z,3.58
2022-12-23T03:14:10.373Z,3.10
2022-12-23T03:17:07.966Z,2.63
2022-12-23T03:19:44.411Z,4.68
2022-12-23T03:22:23.594Z,2.55
2022-12-23T03:25:03.368Z,3.88
2022-12-23T03:27:48.521Z,1.30
2022-12-23T03:30:18.060Z,2.45
2022-12-23T03:32:53.773Z,1.83
2022-12-23T03:35:29.895Z,3.20
2022-12-23T03:37:59.287Z,1.92
2022-12-23T03:40:36.080Z,3.03
2022-12-23T03:43:11.474Z,3.17
2022-12-23T03:45:44.915Z,1.20
2022-12-23T03:48:26.831Z,1.65
2022-12-23T03:50:59.404Z,3.90
2022-12-23T03:53:31.864Z,5.35
2022-12-23T03:56:12.940Z,5.57
2022-12-23T03:58:54.793Z,3.53
2022-12-23T04:01:30.719Z,6.32
2022-12-23T04:04:12.773Z,2.13
2022-12-23T04:06:46.992Z,2.22
2022-12-23T04:09:19.946Z,2.42
2022-12-23T04:11:49.063Z,1.45
2022-12-23T04:14:20.486Z,2.72
2022-12-23T04:16:49.285Z,2.90
2022-12-23T04:19:16.026Z,1.77
2022-12-23T04:21:42.766Z,2.10
2022-12-23T04:24:09.361Z,1.73
2022-12-23T04:26:35.921Z,2.85
2022-12-23T04:29:02.488Z,1.73
2022-12-23T04:31:29.173Z,2.17
2022-12-23T04:33:55.755Z,2.85
2022-12-23T04:36:22.432Z,3.53
2022-12-23T04:38:49.017Z,1.60
2022-12-23T04:41:15.603Z,1.77
2022-12-23T04:43:42.589Z,3.30
2022-12-23T04:46:10.204Z,5.05
2022-12-23T04:48:36.820Z,2.90
2022-12-23T04:51:04.130Z,3.13
2022-12-23T04:53:30.807Z,3.95
2022-12-23T04:55:57.376Z,2.42
2022-12-23T04:58:25.187Z,2.78
2022-12-23T05:01:06.318Z,5.38
2022-12-23T05:03:33.311Z,3.80
2022-12-23T05:05:59.989Z,5.00
2022-12-23T05:08:26.608Z,7.28
2022-12-23T05:10:53.207Z,2.70
2022-12-23T05:13:19.906Z,1.92
2022-12-23T05:15:49.244Z,3.15
2022-12-23T05:18:16.329Z,2.63
2022-12-23T05:20:43.099Z,2.70
2022-12-23T05:23:09.866Z,5.95
2022-12-23T05:25:38.134Z,3.88
2022-12-23T05:28:06.112Z,5.72
2022-12-23T05:30:32.728Z,6.65
2022-12-23T05:32:59.567Z,4.90
2022-12-23T05:35:27.557Z,4.28
2022-12-23T05:37:54.179Z,2.13
2022-12-23T05:40:24.126Z,3.53
2022-12-23T05:42:55.355Z,3.08
2022-12-23T05:45:22.447Z,5.57
2022-12-23T05:47:49.072Z,3.30
2022-12-23T05:50:15.768Z,10.63
2022-12-23T05:52:42.372Z,3.42
2022-12-23T05:55:09.570Z,4.22
2022-12-23T05:57:36.217Z,3.38
2022-12-23T06:00:04.004Z,3.45
2022-12-23T06:02:30.927Z,1.63
2022-12-23T06:04:57.681Z,4.90
2022-12-23T06:07:24.242Z,3.78
2022-12-23T06:09:50.816Z,1.95
2022-12-23T06:12:17.405Z,4.95
2022-12-23T06:14:43.942Z,7.30
2022-12-23T06:17:10.499Z,2.90
2022-12-23T06:19:37.177Z,3.90
2022-12-23T06:22:03.732Z,3.88
2022-12-23T06:24:30.285Z,7.07
2022-12-23T06:26:57.571Z,5.88
2022-12-23T06:29:25.002Z,5.30
2022-12-23T06:31:51.812Z,2.28
2022-12-23T06:34:18.530Z,0.88
2022-12-23T06:36:45.074Z,2.22
2022-12-23T06:39:11.787Z,4.47
2022-12-23T06:41:38.414Z,3.75
2022-12-23T06:44:05.337Z,6.60
2022-12-23T06:46:32.056Z,3.35
2022-12-23T06:48:58.805Z,4.45
2022-12-23T06:51:25.368Z,4.68
2022-12-23T06:53:51.995Z,7.43
2022-12-23T06:56:18.975Z,3.38
2022-12-23T06:58:45.595Z,2.15
2022-12-23T07:01:12.221Z,1.70
2022-12-23T07:03:39.038Z,2.63
2022-12-23T07:06:05.985Z,5.22
2022-12-23T07:08:32.542Z,3.28
2022-12-23T07:10:59.930Z,2.75
2022-12-23T07:13:27.259Z,6.72
2022-12-23T07:15:53.823Z,4.25
2022-12-23T07:18:22.854Z,5.38
2022-12-23T07:20:50.187Z,5.30
2022-12-23T07:23:17.069Z,6.80
2022-12-23T07:25:43.840Z,6.38
2022-12-23T07:28:10.477Z,3.20
2022-12-23T07:30:37.085Z,8.75
2022-12-23T07:33:03.716Z,4.97
2022-12-23T07:35:30.351Z,5.40
2022-12-23T07:37:57.131Z,9.38
2022-12-23T07:40:24.208Z,7.70
2022-12-23T07:42:54.745Z,9.10
2022-12-23T07:45:21.409Z,8.35
2022-12-23T07:47:48.070Z,4.97
2022-12-23T07:50:14.778Z,4.07
2022-12-23T07:52:41.368Z,4.05
2022-12-23T07:55:08.455Z,3.05
2022-12-23T07:57:38.084Z,7.57
2022-12-23T08:00:10.187Z,5.00
2022-12-23T08:02:36.899Z,5.38
2022-12-23T08:05:03.950Z,3.22
2022-12-23T08:07:30.516Z,3.70
2022-12-23T08:09:57.307Z,3.50
2022-12-23T08:12:23.874Z,3.15
2022-12-23T08:14:52.621Z,4.70
2022-12-23T08:17:21.474Z,5.05
2022-12-23T08:19:48.827Z,3.67
2022-12-23T08:22:15.835Z,1.25
2022-12-23T08:24:42.406Z,4.32
2022-12-23T08:27:09.154Z,3.33
2022-12-23T08:29:36.602Z,10.15
2022-12-23T08:32:03.525Z,8.57
2022-12-23T08:34:31.003Z,6.60
2022-12-23T08:36:57.579Z,15.27
2022-12-23T08:39:24.328Z,14.55
2022-12-23T08:41:50.926Z,8.32
2022-12-23T08:44:17.870Z,11.48
2022-12-23T08:46:44.917Z,10.50
2022-12-23T08:49:11.837Z,7.07
2022-12-23T08:51:39.067Z,7.18
2022-12-23T08:54:06.574Z,4.65
2022-12-23T08:56:40.292Z,6.65
2022-12-23T08:59:07.493Z,8.90
2022-12-23T09:01:34.834Z,7.55
2022-12-23T09:04:03.739Z,4.53
2022-12-23T09:06:42.732Z,5.65
2022-12-23T09:09:12.049Z,5.20
2022-12-23T09:11:38.997Z,8.13
2022-12-23T09:14:08.552Z,5.45
2022-12-23T09:16:35.404Z,8.18
2022-12-23T09:19:02.169Z,8.20
2022-12-23T09:21:28.938Z,7.88
2022-12-23T09:23:55.606Z,9.18
2022-12-23T09:26:27.993Z,8.13
2022-12-23T09:28:54.831Z,8.57
2022-12-23T09:31:22.958Z,9.70
2022-12-23T09:33:53.368Z,10.55
2022-12-23T09:36:20.919Z,11.68
2022-12-23T09:38:47.459Z,8.57
2022-12-23T09:41:29.126Z,9.63
2022-12-23T09:44:17.247Z,10.93
2022-12-23T09:46:56.991Z,9.88
2022-12-23T09:49:24.079Z,12.52
2022-12-23T09:51:54.240Z,7.93
2022-12-23T09:54:23.693Z,11.27
2022-12-23T09:57:09.108Z,11.38
2022-12-23T09:59:50.871Z,12.57
2022-12-23T10:02:42.583Z,11.70
2022-12-23T10:05:15.394Z,8.60
2022-12-23T10:07:55.574Z,11.70
2022-12-23T10:10:34.309Z,9.57
2022-12-23T10:13:03.578Z,10.52
2022-12-23T10:15:32.950Z,12.50
2022-12-23T10:18:06.258Z,9.35
2022-12-23T10:20:44.445Z,11.90
2022-12-23T10:23:25.236Z,10.05
2022-12-23T10:25:52.716Z,8.63
2022-12-23T10:28:19.385Z,11.10
2022-12-23T10:31:38.837Z,8.13
2022-12-23T10:34:04.527Z,16.50
2022-12-23T10:36:50.454Z,9.00
2022-12-23T10:39:22.727Z,7.30
2022-12-23T10:42:22.212Z,12.60
2022-12-23T10:45:03.869Z,9.15
2022-12-23T10:47:36.525Z,8.32
2022-12-23T10:50:24.801Z,4.47
2022-12-23T10:52:53.674Z,4.22
2022-12-23T10:55:33.210Z,4.40
2022-12-23T10:58:11.397Z,5.45
2022-12-23T11:00:41.096Z,4.40
2022-12-23T11:03:18.913Z,4.25
2022-12-23T11:05:48.839Z,2.08
2022-12-23T11:08:15.634Z,3.58
2022-12-23T11:10:42.404Z,3.88
2022-12-23T11:13:09.161Z,2.90
2022-12-23T11:15:40.780Z,2.42
2022-12-23T11:18:19.314Z,4.38
2022-12-23T11:21:02.623Z,5.78
2022-12-23T11:23:36.819Z,2.20
2022-12-23T11:26:09.845Z,5.57
2022-12-23T11:28:47.538Z,2.13
2022-12-23T11:31:17.032Z,2.38
2022-12-23T11:33:55.439Z,1.98
2022-12-23T11:36:25.292Z,0.82
2022-12-23T11:38:59.413Z,3.42
2022-12-23T11:41:29.379Z,2.22
2022-12-23T11:44:04.524Z,0.60
2022-12-23T11:46:33.701Z,2.03
2022-12-23T11:49:15.026Z,1.15
2022-12-23T11:51:43.676Z,4.23
2022-12-23T11:54:19.193Z,0.93
2022-12-23T11:56:50.469Z,1.98
2022-12-23T11:59:34.519Z,1.20
2022-12-23T12:02:06.006Z,1.52
2022-12-23T12:04:35.794Z,1.95
2022-12-23T12:07:04.258Z,2.08
2022-12-23T12:09:32.844Z,1.48
2022-12-23T12:12:12.341Z,1.25
2022-12-23T12:14:46.594Z,1.88
2022-12-23T12:17:19.709Z,1.95
2022-12-23T12:19:55.227Z,3.70
2022-12-23T12:22:32.211Z,1.02
2022-12-23T12:25:05.836Z,1.20
2022-12-23T12:27:38.265Z,1.70
2022-12-23T12:30:08.862Z,1.50
2022-12-23T12:32:46.975Z,1.85
2022-12-23T12:35:19.840Z,0.52
2022-12-23T12:37:57.807Z,0.55
2022-12-23T12:40:32.580Z,0.40
2022-12-23T12:43:33.418Z,0.95
2022-12-23T12:46:12.184Z,0.88
2022-12-23T12:48:47.817Z,1.70
2022-12-23T12:51:30.001Z,1.30
2022-12-23T12:56:55.840Z,1.13
2022-12-23T12:59:32.892Z,0.40
2022-12-23T13:02:16.346Z,2.85
2022-12-23T13:04:59.406Z,1.70
2022-12-23T13:07:43.959Z,0.40
2022-12-23T13:10:44.638Z,0.25
2022-12-23T13:13:51.857Z,0.57
2022-12-23T13:16:56.071Z,0.70
2022-12-23T13:19:45.548Z,0.50
2022-12-23T13:22:32.880Z,2.25
2022-12-23T13:25:17.438Z,0.95
2022-12-23T13:28:09.247Z,1.98
2022-12-23T13:30:42.817Z,4.45
2022-12-23T13:33:37.247Z,0.43
2022-12-23T13:36:09.276Z,1.05
2022-12-23T13:44:02.668Z,0.25
2022-12-23T13:47:00.835Z,1.05
2022-12-23T13:49:46.224Z,0.35
2022-12-23T13:52:22.289Z,0.43
2022-12-23T13:55:07.236Z,0.50
2022-12-23T13:57:55.586Z,1.85
2022-12-23T14:00:30.265Z,1.63
2022-12-23T14:03:03.046Z,1.33
2022-12-23T14:05:32.302Z,0.95
2022-12-23T14:08:01.346Z,0.55
2022-12-23T14:10:28.604Z,2.28
2022-12-23T14:13:02.645Z,1.17
2022-12-23T14:15:32.074Z,1.52
2022-12-23T14:18:25.525Z,0.73
2022-12-23T14:21:12.308Z,1.17
2022-12-23T14:24:17.350Z,0.40
2022-12-23T14:26:56.675Z,0.80
2022-12-23T14:29:51.169Z,2.53
2022-12-23T14:32:29.813Z,10.20
2022-12-23T14:35:16.796Z,1.77
2022-12-23T14:38:03.739Z,1.30
2022-12-23T14:40:39.360Z,1.92
2022-12-23T14:43:27.722Z,4.75
2022-12-23T14:46:04.875Z,1.45
2022-12-23T14:48:34.603Z,0.50
2022-12-23T14:51:23.606Z,3.42
2022-12-23T14:53:53.875Z,2.00
2022-12-23T14:56:38.731Z,4.50
2022-12-23T14:59:24.170Z,0.38
2022-12-23T15:01:58.585Z,1.58
2022-12-23T15:04:34.123Z,1.05
2022-12-23T15:07:07.561Z,1.70
2022-12-23T15:09:45.593Z,1.63
2022-12-23T15:12:16.713Z,1.77
2022-12-23T15:14:57.433Z,1.02
2022-12-23T15:17:26.019Z,2.55
2022-12-23T15:19:53.718Z,0.38
2022-12-23T15:22:28.269Z,2.10
2022-12-23T15:24:58.722Z,0.63
2022-12-23T15:27:35.526Z,1.77
2022-12-23T15:30:02.306Z,1.38
2022-12-23T15:32:29.743Z,0.98
2022-12-23T15:35:05.290Z,1.75
2022-12-23T15:37:33.275Z,1.80
2022-12-23T15:40:09.594Z,2.97
2022-12-23T15:42:39.097Z,1.85
2022-12-23T15:45:23.793Z,1.50
2022-12-23T15:47:51.008Z,4.55
2022-12-23T15:50:18.877Z,3.42
2022-12-23T15:52:47.617Z,2.53
2022-12-23T15:55:25.044Z,2.70
2022-12-23T15:57:52.418Z,2.42
2022-12-23T16:00:19.992Z,7.03
2022-12-23T16:03:00.400Z,5.90
2022-12-23T16:05:37.675Z,1.92
2022-12-23T16:08:16.511Z,5.30
2022-12-23T16:11:03.497Z,2.72
2022-12-23T16:13:30.315Z,5.28
2022-12-23T16:16:29.250Z,4.88
2022-12-23T16:18:55.988Z,3.13
2022-12-23T16:21:27.480Z,3.00
2022-12-23T16:23:55.301Z,4.28
2022-12-23T16:26:22.098Z,4.45
2022-12-23T16:28:52.591Z,3.30
2022-12-23T16:31:21.120Z,3.38
2022-12-23T16:33:47.761Z,3.13
2022-12-23T16:36:26.510Z,3.70
2022-12-23T16:39:00.117Z,3.22
2022-12-23T16:41:26.830Z,4.38
2022-12-23T16:43:53.376Z,7.93
2022-12-23T16:46:23.146Z,3.40
2022-12-23T16:48:52.814Z,4.65
2022-12-23T16:51:23.470Z,3.70
2022-12-23T16:53:52.616Z,4.63
2022-12-23T16:56:21.152Z,3.13
2022-12-23T16:58:47.852Z,4.55
2022-12-23T17:01:24.841Z,4.90
2022-12-23T17:03:52.113Z,3.75
2022-12-23T17:06:19.946Z,4.18
2022-12-23T17:08:46.890Z,5.38
2022-12-23T17:11:41.787Z,5.18
2022-12-23T17:14:15.837Z,3.05
2022-12-23T17:16:42.900Z,4.95
2022-12-23T17:19:09.583Z,4.30
2022-12-23T17:21:39.818Z,4.75
2022-12-23T17:24:10.549Z,2.60
2022-12-23T17:26:38.081Z,2.78
2022-12-23T17:29:05.632Z,4.28
2022-12-23T17:31:34.028Z,3.35
2022-12-23T17:34:01.736Z,5.97
2022-12-23T17:36:28.974Z,4.32
2022-12-23T17:38:55.792Z,4.20
2022-12-23T17:41:29.442Z,4.68
2022-12-23T17:43:56.749Z,3.97
2022-12-23T17:46:24.345Z,3.50
2022-12-23T17:48:51.431Z,3.22
2022-12-23T17:51:20.658Z,5.05
2022-12-23T17:53:53.149Z,5.57
2022-12-23T17:56:24.623Z,4.07
2022-12-23T17:58:51.400Z,3.83
2022-12-23T18:01:32.673Z,4.47
2022-12-23T18:04:00.061Z,7.07
2022-12-23T18:06:28.360Z,8.52
2022-12-23T18:08:57.265Z,9.30
2022-12-23T18:11:33.835Z,11.73
2022-12-23T18:14:01.410Z,14.02
2022-12-23T18:16:28.552Z,12.73
2022-12-23T18:18:55.573Z,13.27
2022-12-23T18:21:27.884Z,17.15
2022-12-23T18:23:57.807Z,15.25
2022-12-23T18:26:25.037Z,14.13
2022-12-23T18:28:54.065Z,16.92
2022-12-23T18:31:24.240Z,22.98
2022-12-23T18:33:51.220Z,15.23
2022-12-23T18:36:22.299Z,12.43
2022-12-23T18:38:49.290Z,19.57
2022-12-23T18:41:16.016Z,19.48
2022-12-23T18:43:42.786Z,10.18
2022-12-23T18:46:09.539Z,16.55
2022-12-23T18:48:36.233Z,13.07
2022-12-23T18:51:02.931Z,8.13
2022-12-23T18:53:29.525Z,14.80
2022-12-23T18:55:56.165Z,14.13
2022-12-23T18:58:23.413Z,10.02
2022-12-23T19:00:52.667Z,13.45
2022-12-23T19:03:26.303Z,10.93
2022-12-23T19:05:54.908Z,18.25
2022-12-23T19:08:26.811Z,11.90
2022-12-23T19:10:55.448Z,14.15
2022-12-23T19:13:22.062Z,11.93
2022-12-23T19:15:49.032Z,22.38
2022-12-23T19:18:17.942Z,13.00
2022-12-23T19:20:47.846Z,11.05
2022-12-23T19:23:14.851Z,19.67
2022-12-23T19:25:45.189Z,18.15
2022-12-23T19:28:19.110Z,14.23
2022-12-23T19:30:45.678Z,16.73
2022-12-23T19:33:13.295Z,22.15
2022-12-23T19:35:43.586Z,20.40
2022-12-23T19:38:10.757Z,28.10
2022-12-23T19:40:37.366Z,18.33
2022-12-23T19:43:04.797Z,17.80
2022-12-23T19:45:31.390Z,18.20
2022-12-23T19:47:58.056Z,18.35
2022-12-23T19:50:24.827Z,16.52
2022-12-23T19:52:51.676Z,16.90
2022-12-23T19:55:18.306Z,13.73
2022-12-23T19:57:44.954Z,17.10
2022-12-23T20:00:12.073Z,20.25
2022-12-23T20:02:38.726Z,12.82
2022-12-23T20:05:05.826Z,14.57
2022-12-23T20:07:32.402Z,10.70
2022-12-23T20:09:58.947Z,12.48
2022-12-23T20:12:27.447Z,8.88
2022-12-23T20:14:53.995Z,9.23
2022-12-23T20:17:20.557Z,9.40
2022-12-23T20:19:47.114Z,12.82
2022-12-23T20:22:13.905Z,6.63
2022-12-23T20:24:40.479Z,9.85
2022-12-23T20:27:11.355Z,10.77
2022-12-23T20:32:06.088Z,11.88
2022-12-23T20:34:38.806Z,10.70
2022-12-23T20:37:06.213Z,9.98
2022-12-23T20:39:32.791Z,12.73
2022-12-23T20:41:59.404Z,13.65
2022-12-23T20:44:35.715Z,20.38
2022-12-23T20:47:05.497Z,11.55
2022-12-23T20:49:32.244Z,14.57
2022-12-23T20:51:58.808Z,11.80
2022-12-23T20:54:32.105Z,13.80
2022-12-23T20:56:59.577Z,11.07
2022-12-23T20:59:26.209Z,11.43
2022-12-23T21:01:52.892Z,16.13
2022-12-23T21:04:20.537Z,9.48
2022-12-23T21:06:47.971Z,13.82
2022-12-23T21:09:15.642Z,16.83
2022-12-23T21:11:44.537Z,18.75
2022-12-23T21:14:12.128Z,12.07
2022-12-23T21:16:39.394Z,15.80
2022-12-23T21:19:07.962Z,13.65
2022-12-23T21:21:35.124Z,11.43
2022-12-23T21:24:04.285Z,15.57
2022-12-23T21:26:32.997Z,13.23
2022-12-23T21:29:01.321Z,14.98
2022-12-23T21:31:30.035Z,13.43
2022-12-23T21:33:57.229Z,12.77
2022-12-23T21:36:27.346Z,14.90
2022-12-23T21:38:54.009Z,12.63
2022-12-23T21:41:29.237Z,17.13
2022-12-23T21:43:57.014Z,13.95
2022-12-23T21:46:24.532Z,14.60
2022-12-23T21:48:51.602Z,16.20
2022-12-23T21:51:40.855Z,16.58
2022-12-23T21:54:09.832Z,15.70
2022-12-23T21:56:36.803Z,20.83
2022-12-23T21:59:06.737Z,14.18
2022-12-23T22:01:33.802Z,17.10
2022-12-23T22:04:00.973Z,18.10
2022-12-23T22:06:33.686Z,18.15
2022-12-23T22:09:00.268Z,13.95
2022-12-23T22:11:29.476Z,16.42
2022-12-23T22:13:57.656Z,19.98
2022-12-23T22:16:26.546Z,20.73
2022-12-23T22:18:53.916Z,22.52
2022-12-23T22:21:22.844Z,27.15
2022-12-23T22:23:51.045Z,19.42
2022-12-23T22:26:24.744Z,15.63
2022-12-23T22:28:54.108Z,16.70
2022-12-23T22:31:47.107Z,20.65
2022-12-23T22:34:16.814Z,23.50
2022-12-23T22:36:43.631Z,21.20
2022-12-23T22:39:19.417Z,19.73
2022-12-23T22:41:46.713Z,19.45
2022-12-23T22:44:13.638Z,29.83
2022-12-23T22:46:40.413Z,21.23
2022-12-23T22:49:07.304Z,18.15
2022-12-23T22:51:33.875Z,14.00
2022-12-23T22:54:02.640Z,16.38
2022-12-23T22:56:29.255Z,20.40
2022-12-23T22:58:55.898Z,21.02
2022-12-23T23:01:31.147Z,14.80
2022-12-23T23:03:59.727Z,14.88
2022-12-23T23:06:31.780Z,18.85
2022-12-23T23:11:27.107Z,17.88
2022-12-23T23:13:54.509Z,16.83
2022-12-23T23:16:23.116Z,20.65
2022-12-23T23:18:50.213Z,19.55
2022-12-23T23:21:17.191Z,19.13
2022-12-23T23:23:43.879Z,16.65
2022-12-23T23:26:10.822Z,20.27
2022-12-23T23:28:41.099Z,20.98
2022-12-23T23:33:55.722Z,17.50
2022-12-23T23:36:22.333Z,23.60
2022-12-23T23:38:48.920Z,15.77
2022-12-23T23:41:20.744Z,16.75
2022-12-23T23:43:49.733Z,24.92
2022-12-23T23:46:16.456Z,22.38
2022-12-23T23:48:43.086Z,21.70
2022-12-23T23:51:09.690Z,18.42
2022-12-23T23:53:36.287Z,24.42
2022-12-23T23:56:05.768Z,21.15
2022-12-23T23:58:32.991Z,21.67
